sensor_id;sensor_type;location;lat;lon;timestamp;P1;durP1;ratioP1;P2;durP2;ratioP2
55362;SDS011;41244;49.242;9.060;2023-02-03T00:01:39;6.75;;;4.28;;
55362;SDS011;41244;49.242;9.060;2023-02-03T00:04:05;8.40;;;4.18;;
55362;SDS011;41244;49.242;9.060;2023-02-03T00:06:31;8.32;;;4.20;;
55362;SDS011;41244;49.242;9.060;2023-02-03T00:08:57;12.48;;;4.50;;
55362;SDS011;41244;49.242;9.060;2023-02-03T00:11:24;6.05;;;3.92;;
55362;SDS011;41244;49.242;9.060;2023-02-03T00:13:50;11.05;;;4.63;;
55362;SDS011;41244;49.242;9.060;2023-02-03T00:16:16;8.80;;;4.70;;
55362;SDS011;41244;49.242;9.060;2023-02-03T00:18:42;8.32;;;4.28;;
55362;SDS011;41244;49.242;9.060;2023-02-03T00:21:08;9.27;;;4.30;;
55362;SDS011;41244;49.242;9.060;2023-02-03T00:23:33;8.10;;;4.50;;
55362;SDS011;41244;49.242;9.060;2023-02-03T00:26:06;6.43;;;3.88;;
55362;SDS011;41244;49.242;9.060;2023-02-03T00:28:37;9.52;;;4.95;;
55362;SDS011;41244;49.242;9.060;2023-02-03T00:31:03;10.85;;;5.05;;
55362;SDS011;41244;49.242;9.060;2023-02-03T00:33:30;10.23;;;4.55;;
55362;SDS011;41244;49.242;9.060;2023-02-03T00:35:57;6.20;;;4.03;;
55362;SDS011;41244;49.242;9.060;2023-02-03T00:38:29;9.13;;;4.43;;
55362;SDS011;41244;49.242;9.060;2023-02-03T00:40:55;8.85;;;4.00;;
55362;SDS011;41244;49.242;9.060;2023-02-03T00:43:20;8.55;;;4.30;;
55362;SDS011;41244;49.242;9.060;2023-02-03T00:45:46;8.35;;;4.25;;
55362;SDS011;41244;49.242;9.060;2023-02-03T00:48:12;8.45;;;4.60;;
55362;SDS011;41244;49.242;9.060;2023-02-03T00:50:38;9.35;;;4.53;;
55362;SDS011;41244;49.242;9.060;2023-02-03T00:53:04;10.80;;;5.65;;
55362;SDS011;41244;49.242;9.060;2023-02-03T00:55:30;6.32;;;4.20;;
55362;SDS011;41244;49.242;9.060;2023-02-03T00:57:56;10.60;;;4.80;;
55362;SDS011;41244;49.242;9.060;2023-02-03T01:00:22;7.93;;;4.70;;
55362;SDS011;41244;49.242;9.060;2023-02-03T01:02:47;11.10;;;4.72;;
55362;SDS011;41244;49.242;9.060;2023-02-03T01:05:13;9.68;;;4.60;;
55362;SDS011;41244;49.242;9.060;2023-02-03T01:07:39;8.63;;;5.20;;
55362;SDS011;41244;49.242;9.060;2023-02-03T01:10:05;9.25;;;5.30;;
55362;SDS011;41244;49.242;9.060;2023-02-03T01:12:32;7.60;;;4.68;;
55362;SDS011;41244;49.242;9.060;2023-02-03T01:14:57;7.43;;;4.85;;
55362;SDS011;41244;49.242;9.060;2023-02-03T01:17:24;9.57;;;4.90;;
55362;SDS011;41244;49.242;9.060;2023-02-03T01:19:50;10.65;;;4.88;;
55362;SDS011;41244;49.242;9.060;2023-02-03T01:22:16;8.80;;;5.20;;
55362;SDS011;41244;49.242;9.060;2023-02-03T01:24:42;8.75;;;4.85;;
55362;SDS011;41244;49.242;9.060;2023-02-03T01:27:08;8.52;;;4.38;;
55362;SDS011;41244;49.242;9.060;2023-02-03T01:29:34;9.32;;;5.00;;
55362;SDS011;41244;49.242;9.060;2023-02-03T01:32:00;8.73;;;4.47;;
55362;SDS011;41244;49.242;9.060;2023-02-03T01:34:26;5.53;;;4.20;;
55362;SDS011;41244;49.242;9.060;2023-02-03T01:36:51;5.95;;;4.40;;
55362;SDS011;41244;49.242;9.060;2023-02-03T01:39:17;6.53;;;4.22;;
55362;SDS011;41244;49.242;9.060;2023-02-03T01:41:43;9.80;;;4.43;;
55362;SDS011;41244;49.242;9.060;2023-02-03T01:47:35;11.85;;;5.50;;
55362;SDS011;41244;49.242;9.060;2023-02-03T01:50:18;8.80;;;4.63;;
55362;SDS011;41244;49.242;9.060;2023-02-03T01:52:50;8.38;;;4.50;;
55362;SDS011;41244;49.242;9.060;2023-02-03T01:55:27;7.68;;;4.40;;
55362;SDS011;41244;49.242;9.060;2023-02-03T01:58:07;8.18;;;4.70;;
55362;SDS011;41244;49.242;9.060;2023-02-03T02:00:37;6.55;;;4.32;;
55362;SDS011;41244;49.242;9.060;2023-02-03T02:03:03;7.47;;;4.60;;
55362;SDS011;41244;49.242;9.060;2023-02-03T02:05:31;8.80;;;4.75;;
55362;SDS011;41244;49.242;9.060;2023-02-03T02:08:04;8.65;;;4.75;;
55362;SDS011;41244;49.242;9.060;2023-02-03T02:10:31;9.30;;;5.13;;
55362;SDS011;41244;49.242;9.060;2023-02-03T02:12:57;6.32;;;4.35;;
55362;SDS011;41244;49.242;9.060;2023-02-03T02:15:27;7.90;;;5.63;;
55362;SDS011;41244;49.242;9.060;2023-02-03T02:33:45;6.45;;;4.38;;
55362;SDS011;41244;49.242;9.060;2023-02-03T02:39:16;6.68;;;4.47;;
55362;SDS011;41244;49.242;9.060;2023-02-03T02:41:57;8.20;;;5.20;;
55362;SDS011;41244;49.242;9.060;2023-02-03T02:44:40;6.38;;;4.57;;
55362;SDS011;41244;49.242;9.060;2023-02-03T02:47:19;8.40;;;4.90;;
55362;SDS011;41244;49.242;9.060;2023-02-03T02:52:30;6.80;;;4.45;;
55362;SDS011;41244;49.242;9.060;2023-02-03T02:54:59;5.20;;;4.05;;
55362;SDS011;41244;49.242;9.060;2023-02-03T02:57:30;6.95;;;4.78;;
55362;SDS011;41244;49.242;9.060;2023-02-03T02:59:56;7.18;;;4.60;;
55362;SDS011;41244;49.242;9.060;2023-02-03T03:02:28;10.98;;;4.32;;
55362;SDS011;41244;49.242;9.060;2023-02-03T03:05:00;6.55;;;4.30;;
55362;SDS011;41244;49.242;9.060;2023-02-03T03:07:29;9.10;;;4.65;;
55362;SDS011;41244;49.242;9.060;2023-02-03T03:10:04;4.97;;;4.18;;
55362;SDS011;41244;49.242;9.060;2023-02-03T03:12:34;6.55;;;4.50;;
55362;SDS011;41244;49.242;9.060;2023-02-03T03:15:07;6.50;;;4.45;;
55362;SDS011;41244;49.242;9.060;2023-02-03T03:17:40;5.63;;;4.28;;
55362;SDS011;41244;49.242;9.060;2023-02-03T03:20:33;6.70;;;4.10;;
55362;SDS011;41244;49.242;9.060;2023-02-03T03:23:10;5.80;;;4.18;;
55362;SDS011;41244;49.242;9.060;2023-02-03T03:25:50;6.07;;;4.30;;
55362;SDS011;41244;49.242;9.060;2023-02-03T03:28:51;9.05;;;4.75;;
55362;SDS011;41244;49.242;9.060;2023-02-03T03:31:26;5.60;;;3.90;;
55362;SDS011;41244;49.242;9.060;2023-02-03T03:33:52;6.38;;;4.53;;
55362;SDS011;41244;49.242;9.060;2023-02-03T03:36:23;8.18;;;4.55;;
55362;SDS011;41244;49.242;9.060;2023-02-03T03:38:59;8.18;;;4.10;;
55362;SDS011;41244;49.242;9.060;2023-02-03T03:44:51;5.60;;;4.18;;
55362;SDS011;41244;49.242;9.060;2023-02-03T03:48:08;4.55;;;4.00;;
55362;SDS011;41244;49.242;9.060;2023-02-03T03:50:55;6.40;;;3.90;;
55362;SDS011;41244;49.242;9.060;2023-02-03T03:53:35;5.45;;;3.90;;
55362;SDS011;41244;49.242;9.060;2023-02-03T03:56:04;8.40;;;4.50;;
55362;SDS011;41244;49.242;9.060;2023-02-03T03:58:32;5.07;;;4.25;;
55362;SDS011;41244;49.242;9.060;2023-02-03T04:01:00;6.18;;;4.47;;
55362;SDS011;41244;49.242;9.060;2023-02-03T04:03:37;6.82;;;4.47;;
55362;SDS011;41244;49.242;9.060;2023-02-03T04:06:07;7.88;;;4.32;;
55362;SDS011;41244;49.242;9.060;2023-02-03T04:08:33;6.75;;;4.75;;
55362;SDS011;41244;49.242;9.060;2023-02-03T04:10:58;7.78;;;4.30;;
55362;SDS011;41244;49.242;9.060;2023-02-03T04:13:24;5.53;;;4.60;;
55362;SDS011;41244;49.242;9.060;2023-02-03T04:15:50;5.13;;;4.63;;
55362;SDS011;41244;49.242;9.060;2023-02-03T04:18:17;5.45;;;4.72;;
55362;SDS011;41244;49.242;9.060;2023-02-03T04:20:42;6.85;;;4.72;;
55362;SDS011;41244;49.242;9.060;2023-02-03T04:23:09;7.68;;;5.10;;
55362;SDS011;41244;49.242;9.060;2023-02-03T04:25:35;6.43;;;5.20;;
55362;SDS011;41244;49.242;9.060;2023-02-03T04:28:00;6.25;;;4.75;;
55362;SDS011;41244;49.242;9.060;2023-02-03T04:30:26;8.05;;;5.20;;
55362;SDS011;41244;49.242;9.060;2023-02-03T04:32:52;7.55;;;4.75;;
55362;SDS011;41244;49.242;9.060;2023-02-03T04:35:18;8.75;;;5.47;;
55362;SDS011;41244;49.242;9.060;2023-02-03T04:37:44;6.70;;;5.18;;
55362;SDS011;41244;49.242;9.060;2023-02-03T04:40:10;7.40;;;5.20;;
55362;SDS011;41244;49.242;9.060;2023-02-03T04:42:37;6.63;;;4.80;;
55362;SDS011;41244;49.242;9.060;2023-02-03T04:45:04;7.07;;;5.30;;
55362;SDS011;41244;49.242;9.060;2023-02-03T04:47:32;5.82;;;4.88;;
55362;SDS011;41244;49.242;9.060;2023-02-03T04:49:58;9.60;;;5.45;;
55362;SDS011;41244;49.242;9.060;2023-02-03T04:52:24;7.55;;;5.85;;
55362;SDS011;41244;49.242;9.060;2023-02-03T04:54:50;13.13;;;6.38;;
55362;SDS011;41244;49.242;9.060;2023-02-03T04:57:15;6.55;;;5.28;;
55362;SDS011;41244;49.242;9.060;2023-02-03T04:59:41;8.50;;;5.50;;
55362;SDS011;41244;49.242;9.060;2023-02-03T05:02:07;8.32;;;5.70;;
55362;SDS011;41244;49.242;9.060;2023-02-03T05:04:33;8.88;;;5.38;;
55362;SDS011;41244;49.242;9.060;2023-02-03T05:06:59;8.80;;;5.78;;
55362;SDS011;41244;49.242;9.060;2023-02-03T05:09:25;9.32;;;6.00;;
55362;SDS011;41244;49.242;9.060;2023-02-03T05:11:51;8.32;;;5.80;;
55362;SDS011;41244;49.242;9.060;2023-02-03T05:14:17;8.13;;;5.82;;
55362;SDS011;41244;49.242;9.060;2023-02-03T05:16:43;8.25;;;5.78;;
55362;SDS011;41244;49.242;9.060;2023-02-03T05:19:09;10.02;;;5.20;;
55362;SDS011;41244;49.242;9.060;2023-02-03T05:21:35;7.60;;;5.35;;
55362;SDS011;41244;49.242;9.060;2023-02-03T05:24:01;8.05;;;5.07;;
55362;SDS011;41244;49.242;9.060;2023-02-03T05:26:30;7.97;;;5.30;;
55362;SDS011;41244;49.242;9.060;2023-02-03T05:28:56;9.25;;;5.55;;
55362;SDS011;41244;49.242;9.060;2023-02-03T05:31:22;9.02;;;5.28;;
55362;SDS011;41244;49.242;9.060;2023-02-03T05:33:48;8.10;;;5.63;;
55362;SDS011;41244;49.242;9.060;2023-02-03T05:36:14;9.32;;;4.78;;
55362;SDS011;41244;49.242;9.060;2023-02-03T05:38:39;6.57;;;5.30;;
55362;SDS011;41244;49.242;9.060;2023-02-03T05:41:06;5.53;;;4.93;;
55362;SDS011;41244;49.242;9.060;2023-02-03T05:43:53;10.10;;;5.35;;
55362;SDS011;41244;49.242;9.060;2023-02-03T05:46:18;6.47;;;5.28;;
55362;SDS011;41244;49.242;9.060;2023-02-03T05:48:44;8.23;;;5.45;;
55362;SDS011;41244;49.242;9.060;2023-02-03T05:51:10;7.75;;;5.25;;
55362;SDS011;41244;49.242;9.060;2023-02-03T05:53:36;5.72;;;5.13;;
55362;SDS011;41244;49.242;9.060;2023-02-03T05:56:02;7.50;;;5.30;;
55362;SDS011;41244;49.242;9.060;2023-02-03T05:58:28;11.05;;;5.20;;
55362;SDS011;41244;49.242;9.060;2023-02-03T06:00:54;8.00;;;6.20;;
55362;SDS011;41244;49.242;9.060;2023-02-03T06:03:20;8.70;;;6.10;;
55362;SDS011;41244;49.242;9.060;2023-02-03T06:05:45;9.32;;;6.63;;
55362;SDS011;41244;49.242;9.060;2023-02-03T06:08:11;8.52;;;5.45;;
55362;SDS011;41244;49.242;9.060;2023-02-03T06:10:37;6.55;;;5.10;;
55362;SDS011;41244;49.242;9.060;2023-02-03T06:13:13;12.85;;;6.78;;
55362;SDS011;41244;49.242;9.060;2023-02-03T06:15:40;6.88;;;5.15;;
55362;SDS011;41244;49.242;9.060;2023-02-03T06:18:06;5.05;;;4.55;;
55362;SDS011;41244;49.242;9.060;2023-02-03T06:20:33;7.97;;;5.90;;
55362;SDS011;41244;49.242;9.060;2023-02-03T06:22:59;7.20;;;5.95;;
55362;SDS011;41244;49.242;9.060;2023-02-03T06:25:24;8.02;;;5.85;;
55362;SDS011;41244;49.242;9.060;2023-02-03T06:27:51;9.15;;;5.85;;
55362;SDS011;41244;49.242;9.060;2023-02-03T06:30:17;6.18;;;4.20;;
55362;SDS011;41244;49.242;9.060;2023-02-03T06:32:44;10.60;;;5.22;;
55362;SDS011;41244;49.242;9.060;2023-02-03T06:35:10;9.60;;;5.43;;
55362;SDS011;41244;49.242;9.060;2023-02-03T06:37:36;8.02;;;5.25;;
55362;SDS011;41244;49.242;9.060;2023-02-03T06:40:02;6.80;;;5.15;;
55362;SDS011;41244;49.242;9.060;2023-02-03T06:42:29;9.07;;;5.68;;
55362;SDS011;41244;49.242;9.060;2023-02-03T06:44:55;10.00;;;5.55;;
55362;SDS011;41244;49.242;9.060;2023-02-03T06:47:21;9.20;;;5.55;;
55362;SDS011;41244;49.242;9.060;2023-02-03T06:49:46;8.68;;;6.20;;
55362;SDS011;41244;49.242;9.060;2023-02-03T06:52:12;8.93;;;5.82;;
55362;SDS011;41244;49.242;9.060;2023-02-03T06:54:39;8.68;;;6.13;;
55362;SDS011;41244;49.242;9.060;2023-02-03T06:57:05;10.30;;;6.07;;
55362;SDS011;41244;49.242;9.060;2023-02-03T06:59:31;7.35;;;4.75;;
55362;SDS011;41244;49.242;9.060;2023-02-03T07:01:57;12.00;;;4.82;;
55362;SDS011;41244;49.242;9.060;2023-02-03T07:04:22;8.15;;;5.65;;
55362;SDS011;41244;49.242;9.060;2023-02-03T07:06:49;6.85;;;5.68;;
55362;SDS011;41244;49.242;9.060;2023-02-03T07:09:15;9.57;;;6.25;;
55362;SDS011;41244;49.242;9.060;2023-02-03T07:11:41;9.27;;;5.30;;
55362;SDS011;41244;49.242;9.060;2023-02-03T07:14:07;6.70;;;5.93;;
55362;SDS011;41244;49.242;9.060;2023-02-03T07:16:33;9.75;;;6.57;;
55362;SDS011;41244;49.242;9.060;2023-02-03T07:19:01;10.55;;;5.43;;
55362;SDS011;41244;49.242;9.060;2023-02-03T07:21:28;10.43;;;5.38;;
55362;SDS011;41244;49.242;9.060;2023-02-03T07:23:53;10.02;;;6.10;;
55362;SDS011;41244;49.242;9.060;2023-02-03T07:26:19;8.68;;;5.85;;
55362;SDS011;41244;49.242;9.060;2023-02-03T07:28:47;6.80;;;5.30;;
55362;SDS011;41244;49.242;9.060;2023-02-03T07:31:13;9.43;;;5.43;;
55362;SDS011;41244;49.242;9.060;2023-02-03T07:33:39;6.95;;;5.95;;
55362;SDS011;41244;49.242;9.060;2023-02-03T07:36:05;8.90;;;5.53;;
55362;SDS011;41244;49.242;9.060;2023-02-03T07:38:32;7.78;;;6.20;;
55362;SDS011;41244;49.242;9.060;2023-02-03T07:40:58;6.25;;;5.63;;
55362;SDS011;41244;49.242;9.060;2023-02-03T07:43:24;9.00;;;5.70;;
55362;SDS011;41244;49.242;9.060;2023-02-03T07:45:49;6.90;;;6.18;;
55362;SDS011;41244;49.242;9.060;2023-02-03T07:48:15;7.28;;;5.45;;
55362;SDS011;41244;49.242;9.060;2023-02-03T07:50:41;7.78;;;5.18;;
55362;SDS011;41244;49.242;9.060;2023-02-03T07:53:07;8.35;;;5.28;;
55362;SDS011;41244;49.242;9.060;2023-02-03T07:55:33;7.43;;;5.55;;
55362;SDS011;41244;49.242;9.060;2023-02-03T07:57:59;6.32;;;5.07;;
55362;SDS011;41244;49.242;9.060;2023-02-03T08:00:25;5.80;;;5.13;;
55362;SDS011;41244;49.242;9.060;2023-02-03T08:02:51;10.95;;;5.35;;
55362;SDS011;41244;49.242;9.060;2023-02-03T08:05:17;6.75;;;5.60;;
55362;SDS011;41244;49.242;9.060;2023-02-03T08:07:43;6.57;;;5.05;;
55362;SDS011;41244;49.242;9.060;2023-02-03T08:10:10;7.05;;;5.30;;
55362;SDS011;41244;49.242;9.060;2023-02-03T08:12:37;6.97;;;5.32;;
55362;SDS011;41244;49.242;9.060;2023-02-03T08:15:04;7.03;;;5.32;;
55362;SDS011;41244;49.242;9.060;2023-02-03T08:17:30;6.07;;;5.43;;
55362;SDS011;41244;49.242;9.060;2023-02-03T08:19:57;5.97;;;5.38;;
55362;SDS011;41244;49.242;9.060;2023-02-03T08:22:24;7.05;;;5.57;;
55362;SDS011;41244;49.242;9.060;2023-02-03T08:24:50;7.43;;;5.80;;
55362;SDS011;41244;49.242;9.060;2023-02-03T08:27:17;11.20;;;5.72;;
55362;SDS011;41244;49.242;9.060;2023-02-03T08:29:46;6.88;;;4.75;;
55362;SDS011;41244;49.242;9.060;2023-02-03T08:32:13;7.38;;;4.85;;
55362;SDS011;41244;49.242;9.060;2023-02-03T08:34:47;8.23;;;6.55;;
55362;SDS011;41244;49.242;9.060;2023-02-03T08:37:14;8.27;;;5.20;;
55362;SDS011;41244;49.242;9.060;2023-02-03T08:39:41;7.22;;;4.78;;
55362;SDS011;41244;49.242;9.060;2023-02-03T08:42:07;9.25;;;5.25;;
55362;SDS011;41244;49.242;9.060;2023-02-03T08:44:33;6.03;;;4.82;;
55362;SDS011;41244;49.242;9.060;2023-02-03T08:47:00;7.68;;;5.57;;
55362;SDS011;41244;49.242;9.060;2023-02-03T08:49:27;7.32;;;5.72;;
55362;SDS011;41244;49.242;9.060;2023-02-03T08:51:54;5.97;;;5.38;;
55362;SDS011;41244;49.242;9.060;2023-02-03T08:54:21;7.28;;;5.82;;
55362;SDS011;41244;49.242;9.060;2023-02-03T08:56:47;13.15;;;10.07;;
55362;SDS011;41244;49.242;9.060;2023-02-03T08:59:13;6.25;;;5.22;;
55362;SDS011;41244;49.242;9.060;2023-02-03T09:01:40;10.25;;;6.22;;
55362;SDS011;41244;49.242;9.060;2023-02-03T09:04:09;8.77;;;6.30;;
55362;SDS011;41244;49.242;9.060;2023-02-03T09:06:35;7.95;;;6.30;;
55362;SDS011;41244;49.242;9.060;2023-02-03T09:09:02;10.82;;;7.45;;
55362;SDS011;41244;49.242;9.060;2023-02-03T09:11:28;10.02;;;6.70;;
55362;SDS011;41244;49.242;9.060;2023-02-03T09:13:53;9.13;;;6.40;;
55362;SDS011;41244;49.242;9.060;2023-02-03T09:16:21;9.35;;;6.82;;
55362;SDS011;41244;49.242;9.060;2023-02-03T09:18:48;8.38;;;6.47;;
55362;SDS011;41244;49.242;9.060;2023-02-03T09:21:14;7.93;;;6.65;;
55362;SDS011;41244;49.242;9.060;2023-02-03T09:23:41;6.97;;;6.28;;
55362;SDS011;41244;49.242;9.060;2023-02-03T09:26:09;7.68;;;6.13;;
55362;SDS011;41244;49.242;9.060;2023-02-03T09:28:38;6.57;;;4.43;;
55362;SDS011;41244;49.242;9.060;2023-02-03T09:31:08;8.48;;;5.60;;
55362;SDS011;41244;49.242;9.060;2023-02-03T09:33:36;7.07;;;4.45;;
55362;SDS011;41244;49.242;9.060;2023-02-03T09:36:03;6.40;;;5.10;;
55362;SDS011;41244;49.242;9.060;2023-02-03T09:38:30;7.05;;;6.32;;
55362;SDS011;41244;49.242;9.060;2023-02-03T09:43:39;8.27;;;5.55;;
55362;SDS011;41244;49.242;9.060;2023-02-03T09:46:11;8.07;;;6.25;;
55362;SDS011;41244;49.242;9.060;2023-02-03T09:48:50;7.45;;;4.60;;
55362;SDS011;41244;49.242;9.060;2023-02-03T09:51:58;7.28;;;5.63;;
55362;SDS011;41244;49.242;9.060;2023-02-03T09:54:25;6.80;;;6.20;;
55362;SDS011;41244;49.242;9.060;2023-02-03T09:59:31;6.93;;;5.80;;
55362;SDS011;41244;49.242;9.060;2023-02-03T10:02:06;7.03;;;5.07;;
55362;SDS011;41244;49.242;9.060;2023-02-03T10:08:40;6.93;;;4.50;;
55362;SDS011;41244;49.242;9.060;2023-02-03T10:17:04;6.40;;;4.93;;
55362;SDS011;41244;49.242;9.060;2023-02-03T10:22:36;6.88;;;4.70;;
55362;SDS011;41244;49.242;9.060;2023-02-03T10:28:07;6.35;;;4.70;;
55362;SDS011;41244;49.242;9.060;2023-02-03T10:30:46;6.70;;;4.50;;
55362;SDS011;41244;49.242;9.060;2023-02-03T10:33:18;5.70;;;4.67;;
55362;SDS011;41244;49.242;9.060;2023-02-03T10:38:20;6.25;;;5.13;;
55362;SDS011;41244;49.242;9.060;2023-02-03T10:41:10;7.75;;;4.50;;
55362;SDS011;41244;49.242;9.060;2023-02-03T10:43:36;8.85;;;6.13;;
55362;SDS011;41244;49.242;9.060;2023-02-03T10:46:18;6.20;;;4.32;;
55362;SDS011;41244;49.242;9.060;2023-02-03T10:48:55;6.20;;;4.97;;
55362;SDS011;41244;49.242;9.060;2023-02-03T10:51:22;6.10;;;5.15;;
55362;SDS011;41244;49.242;9.060;2023-02-03T10:54:00;7.45;;;4.78;;
55362;SDS011;41244;49.242;9.060;2023-02-03T10:56:28;9.18;;;5.47;;
55362;SDS011;41244;49.242;9.060;2023-02-03T10:59:02;5.80;;;4.68;;
55362;SDS011;41244;49.242;9.060;2023-02-03T11:04:25;9.15;;;5.00;;
55362;SDS011;41244;49.242;9.060;2023-02-03T11:06:54;7.13;;;5.30;;
55362;SDS011;41244;49.242;9.060;2023-02-03T11:09:28;8.35;;;5.50;;
55362;SDS011;41244;49.242;9.060;2023-02-03T11:14:37;6.90;;;4.88;;
55362;SDS011;41244;49.242;9.060;2023-02-03T11:17:29;7.30;;;4.88;;
55362;SDS011;41244;49.242;9.060;2023-02-03T11:20:11;7.25;;;5.18;;
55362;SDS011;41244;49.242;9.060;2023-02-03T11:22:39;5.35;;;4.80;;
55362;SDS011;41244;49.242;9.060;2023-02-03T11:25:16;7.20;;;4.70;;
55362;SDS011;41244;49.242;9.060;2023-02-03T11:27:49;5.65;;;4.80;;
55362;SDS011;41244;49.242;9.060;2023-02-03T11:30:16;8.48;;;4.90;;
55362;SDS011;41244;49.242;9.060;2023-02-03T11:32:49;6.18;;;4.50;;
55362;SDS011;41244;49.242;9.060;2023-02-03T11:35:16;8.32;;;5.78;;
55362;SDS011;41244;49.242;9.060;2023-02-03T11:37:47;10.90;;;7.88;;
55362;SDS011;41244;49.242;9.060;2023-02-03T11:40:21;10.77;;;5.50;;
55362;SDS011;41244;49.242;9.060;2023-02-03T11:45:23;5.90;;;4.75;;
55362;SDS011;41244;49.242;9.060;2023-02-03T11:54:12;7.38;;;5.10;;
55362;SDS011;41244;49.242;9.060;2023-02-03T11:57:02;5.20;;;4.70;;
55362;SDS011;41244;49.242;9.060;2023-02-03T12:00:19;7.07;;;4.60;;
55362;SDS011;41244;49.242;9.060;2023-02-03T12:03:35;5.82;;;4.30;;
55362;SDS011;41244;49.242;9.060;2023-02-03T12:29:04;4.82;;;3.53;;
55362;SDS011;41244;49.242;9.060;2023-02-03T12:31:39;8.77;;;5.50;;
55362;SDS011;41244;49.242;9.060;2023-02-03T12:34:27;7.53;;;5.30;;
55362;SDS011;41244;49.242;9.060;2023-02-03T12:37:23;5.47;;;3.10;;
55362;SDS011;41244;49.242;9.060;2023-02-03T12:39:52;3.75;;;3.08;;
55362;SDS011;41244;49.242;9.060;2023-02-03T12:45:11;3.58;;;2.97;;
55362;SDS011;41244;49.242;9.060;2023-02-03T12:48:01;4.13;;;3.42;;
55362;SDS011;41244;49.242;9.060;2023-02-03T12:50:43;3.90;;;3.42;;
55362;SDS011;41244;49.242;9.060;2023-02-03T12:53:21;4.05;;;3.38;;
55362;SDS011;41244;49.242;9.060;2023-02-03T12:55:54;3.30;;;3.00;;
55362;SDS011;41244;49.242;9.060;2023-02-03T12:58:34;3.38;;;3.08;;
55362;SDS011;41244;49.242;9.060;2023-02-03T13:01:07;5.63;;;3.17;;
55362;SDS011;41244;49.242;9.060;2023-02-03T13:03:48;3.55;;;3.20;;
55362;SDS011;41244;49.242;9.060;2023-02-03T13:06:38;3.33;;;3.03;;
55362;SDS011;41244;49.242;9.060;2023-02-03T13:09:27;3.03;;;2.70;;
55362;SDS011;41244;49.242;9.060;2023-02-03T13:12:11;3.23;;;2.93;;
55362;SDS011;41244;49.242;9.060;2023-02-03T13:20:19;3.95;;;2.90;;
55362;SDS011;41244;49.242;9.060;2023-02-03T13:22:48;5.35;;;3.75;;
55362;SDS011;41244;49.242;9.060;2023-02-03T13:30:54;5.13;;;4.65;;
55362;SDS011;41244;49.242;9.060;2023-02-03T13:33:35;4.43;;;4.00;;
55362;SDS011;41244;49.242;9.060;2023-02-03T13:42:38;2.85;;;2.65;;
55362;SDS011;41244;49.242;9.060;2023-02-03T13:45:30;3.55;;;3.10;;
55362;SDS011;41244;49.242;9.060;2023-02-03T13:48:16;4.60;;;2.78;;
55362;SDS011;41244;49.242;9.060;2023-02-03T13:50:49;3.85;;;2.88;;
55362;SDS011;41244;49.242;9.060;2023-02-03T13:53:26;4.22;;;3.53;;
55362;SDS011;41244;49.242;9.060;2023-02-03T13:55:54;2.95;;;2.65;;
55362;SDS011;41244;49.242;9.060;2023-02-03T13:58:31;5.90;;;3.80;;
55362;SDS011;41244;49.242;9.060;2023-02-03T14:04:00;3.83;;;3.40;;
55362;SDS011;41244;49.242;9.060;2023-02-03T14:09:00;2.65;;;2.45;;
55362;SDS011;41244;49.242;9.060;2023-02-03T14:19:08;3.33;;;2.70;;
55362;SDS011;41244;49.242;9.060;2023-02-03T14:21:43;3.67;;;3.38;;
55362;SDS011;41244;49.242;9.060;2023-02-03T14:24:28;3.20;;;2.90;;
55362;SDS011;41244;49.242;9.060;2023-02-03T14:30:06;4.03;;;3.58;;
55362;SDS011;41244;49.242;9.060;2023-02-03T14:32:56;3.90;;;3.05;;
55362;SDS011;41244;49.242;9.060;2023-02-03T14:35:31;2.65;;;2.45;;
55362;SDS011;41244;49.242;9.060;2023-02-03T14:49:25;2.35;;;2.15;;
55362;SDS011;41244;49.242;9.060;2023-02-03T14:55:10;2.10;;;2.00;;
55362;SDS011;41244;49.242;9.060;2023-02-03T15:00:57;6.80;;;4.55;;
55362;SDS011;41244;49.242;9.060;2023-02-03T15:03:23;5.07;;;3.85;;
55362;SDS011;41244;49.242;9.060;2023-02-03T15:05:56;3.50;;;2.70;;
55362;SDS011;41244;49.242;9.060;2023-02-03T15:10:54;2.28;;;1.92;;
55362;SDS011;41244;49.242;9.060;2023-02-03T15:13:28;2.63;;;2.42;;
55362;SDS011;41244;49.242;9.060;2023-02-03T15:15:56;1.95;;;1.85;;
55362;SDS011;41244;49.242;9.060;2023-02-03T15:18:28;2.90;;;2.17;;
55362;SDS011;41244;49.242;9.060;2023-02-03T15:21:04;2.38;;;2.20;;
55362;SDS011;41244;49.242;9.060;2023-02-03T15:23:36;2.28;;;2.17;;
55362;SDS011;41244;49.242;9.060;2023-02-03T15:26:43;2.70;;;2.50;;
55362;SDS011;41244;49.242;9.060;2023-02-03T15:28:59;2.33;;;2.22;;
55362;SDS011;41244;49.242;9.060;2023-02-03T15:34:00;2.42;;;2.33;;
55362;SDS011;41244;49.242;9.060;2023-02-03T15:36:59;2.55;;;2.35;;
55362;SDS011;41244;49.242;9.060;2023-02-03T15:39:45;2.50;;;2.30;;
55362;SDS011;41244;49.242;9.060;2023-02-03T15:42:18;2.63;;;2.42;;
55362;SDS011;41244;49.242;9.060;2023-02-03T15:47:40;2.95;;;2.38;;
55362;SDS011;41244;49.242;9.060;2023-02-03T15:50:32;3.10;;;2.60;;
55362;SDS011;41244;49.242;9.060;2023-02-03T15:55:48;2.90;;;2.60;;
55362;SDS011;41244;49.242;9.060;2023-02-03T15:58:18;3.65;;;3.20;;
55362;SDS011;41244;49.242;9.060;2023-02-03T16:00:51;2.67;;;2.47;;
55362;SDS011;41244;49.242;9.060;2023-02-03T16:03:20;2.60;;;2.40;;
55362;SDS011;41244;49.242;9.060;2023-02-03T16:06:04;2.95;;;2.70;;
55362;SDS011;41244;49.242;9.060;2023-02-03T16:08:52;2.60;;;2.40;;
55362;SDS011;41244;49.242;9.060;2023-02-03T16:11:37;3.85;;;2.80;;
55362;SDS011;41244;49.242;9.060;2023-02-03T16:14:09;3.05;;;2.40;;
55362;SDS011;41244;49.242;9.060;2023-02-03T16:16:37;2.88;;;2.67;;
55362;SDS011;41244;49.242;9.060;2023-02-03T16:19:12;2.60;;;2.40;;
55362;SDS011;41244;49.242;9.060;2023-02-03T16:24:40;2.90;;;2.60;;
55362;SDS011;41244;49.242;9.060;2023-02-03T16:33:16;5.15;;;4.65;;
55362;SDS011;41244;49.242;9.060;2023-02-03T16:36:02;4.13;;;3.72;;
55362;SDS011;41244;49.242;9.060;2023-02-03T16:38:54;4.87;;;3.67;;
55362;SDS011;41244;49.242;9.060;2023-02-03T16:41:38;4.90;;;3.80;;
55362;SDS011;41244;49.242;9.060;2023-02-03T16:44:23;3.65;;;3.35;;
55362;SDS011;41244;49.242;9.060;2023-02-03T16:50:27;3.90;;;3.50;;
55362;SDS011;41244;49.242;9.060;2023-02-03T16:53:12;4.30;;;3.40;;
55362;SDS011;41244;49.242;9.060;2023-02-03T16:55:47;3.58;;;3.25;;
55362;SDS011;41244;49.242;9.060;2023-02-03T16:58:13;3.58;;;3.28;;
55362;SDS011;41244;49.242;9.060;2023-02-03T17:00:43;3.83;;;3.13;;
55362;SDS011;41244;49.242;9.060;2023-02-03T17:03:11;3.97;;;3.10;;
55362;SDS011;41244;49.242;9.060;2023-02-03T17:05:40;4.05;;;3.20;;
55362;SDS011;41244;49.242;9.060;2023-02-03T17:08:14;3.20;;;2.92;;
55362;SDS011;41244;49.242;9.060;2023-02-03T17:10:42;3.08;;;2.78;;
55362;SDS011;41244;49.242;9.060;2023-02-03T17:13:09;4.00;;;3.55;;
55362;SDS011;41244;49.242;9.060;2023-02-03T17:15:39;4.35;;;3.28;;
55362;SDS011;41244;49.242;9.060;2023-02-03T17:18:07;4.68;;;3.40;;
55362;SDS011;41244;49.242;9.060;2023-02-03T17:20:34;3.60;;;3.30;;
55362;SDS011;41244;49.242;9.060;2023-02-03T17:23:00;4.10;;;3.40;;
55362;SDS011;41244;49.242;9.060;2023-02-03T17:25:27;3.97;;;2.95;;
55362;SDS011;41244;49.242;9.060;2023-02-03T17:27:53;3.45;;;3.15;;
55362;SDS011;41244;49.242;9.060;2023-02-03T17:30:18;3.35;;;3.05;;
55362;SDS011;41244;49.242;9.060;2023-02-03T17:32:44;4.03;;;2.90;;
55362;SDS011;41244;49.242;9.060;2023-02-03T17:35:10;4.60;;;3.35;;
55362;SDS011;41244;49.242;9.060;2023-02-03T17:37:36;4.57;;;3.65;;
55362;SDS011;41244;49.242;9.060;2023-02-03T17:40:02;3.85;;;3.45;;
55362;SDS011;41244;49.242;9.060;2023-02-03T17:42:28;3.90;;;3.17;;
55362;SDS011;41244;49.242;9.060;2023-02-03T17:44:54;4.90;;;3.45;;
55362;SDS011;41244;49.242;9.060;2023-02-03T17:47:20;4.47;;;4.07;;
55362;SDS011;41244;49.242;9.060;2023-02-03T17:49:45;3.35;;;3.10;;
55362;SDS011;41244;49.242;9.060;2023-02-03T17:52:12;3.70;;;3.30;;
55362;SDS011;41244;49.242;9.060;2023-02-03T17:54:39;3.40;;;3.10;;